createdAt,value
2019-03-24T00:01:47.982Z,49.00
2019-03-24T00:04:25.586Z,49.00
2019-03-24T00:06:56.486Z,49.00
2019-03-24T00:09:27.271Z,48.90
2019-03-24T00:11:58.054Z,48.90
2019-03-24T00:14:29.358Z,49.10
2019-03-24T00:17:00.310Z,49.10
2019-03-24T00:19:31.114Z,49.10
2019-03-24T00:22:01.913Z,49.10
2019-03-24T00:24:32.691Z,49.10
2019-03-24T00:27:03.642Z,49.10
2019-03-24T00:29:34.561Z,49.00
2019-03-24T00:32:05.426Z,49.10
2019-03-24T00:34:36.234Z,49.20
2019-03-24T00:37:08.036Z,49.20
2019-03-24T00:39:38.989Z,49.20
2019-03-24T00:42:09.878Z,49.80
2019-03-24T00:44:40.654Z,49.40
2019-03-24T00:47:11.530Z,49.70
2019-03-24T00:49:42.311Z,50.00
2019-03-24T00:52:13.130Z,49.80
2019-03-24T00:54:43.965Z,50.00
2019-03-24T00:57:14.817Z,50.10
2019-03-24T00:59:45.650Z,50.00
2019-03-24T01:02:16.817Z,49.80
2019-03-24T01:04:47.832Z,49.80
2019-03-24T01:07:18.814Z,49.70
2019-03-24T01:09:49.674Z,49.90
2019-03-24T01:12:20.542Z,50.00
2019-03-24T01:14:51.245Z,49.90
2019-03-24T01:17:22.327Z,50.10
2019-03-24T01:19:53.183Z,50.60
2019-03-24T01:22:23.966Z,50.10
2019-03-24T01:24:54.714Z,50.10
2019-03-24T01:27:26.614Z,50.30
2019-03-24T01:29:57.562Z,50.20
2019-03-24T01:32:28.350Z,50.20
2019-03-24T01:34:59.157Z,50.20
2019-03-24T01:37:29.990Z,50.20
2019-03-24T01:40:00.777Z,50.70
2019-03-24T01:42:31.630Z,50.10
2019-03-24T01:45:02.377Z,50.10
2019-03-24T01:47:33.607Z,50.00
2019-03-24T01:50:04.441Z,49.90
2019-03-24T01:52:35.218Z,50.00
2019-03-24T01:55:06.010Z,49.90
2019-03-24T01:57:36.801Z,50.00
2019-03-24T02:00:07.906Z,49.90
2019-03-24T02:02:38.821Z,49.90
2019-03-24T02:05:09.731Z,49.90
2019-03-24T02:07:40.571Z,49.90
2019-03-24T02:10:11.418Z,50.00
2019-03-24T02:12:42.325Z,50.00
2019-03-24T02:15:13.174Z,50.10
2019-03-24T02:17:44.098Z,50.00
2019-03-24T02:20:14.918Z,49.90
2019-03-24T02:22:45.737Z,49.80
2019-03-24T02:25:16.516Z,50.00
2019-03-24T02:27:47.377Z,50.10
2019-03-24T02:30:18.371Z,50.10
2019-03-24T02:32:49.198Z,50.00
2019-03-24T02:35:20.074Z,50.00
2019-03-24T02:37:51.006Z,49.80
2019-03-24T02:40:21.799Z,49.70
2019-03-24T02:42:52.790Z,49.70
2019-03-24T02:45:23.620Z,49.90
2019-03-24T02:47:59.949Z,50.10
2019-03-24T02:50:30.757Z,50.20
2019-03-24T02:53:02.651Z,50.30
2019-03-24T02:55:33.598Z,50.40
2019-03-24T02:58:04.462Z,50.40
2019-03-24T03:00:35.350Z,50.20
2019-03-24T03:03:06.385Z,50.10
2019-03-24T03:05:37.287Z,50.10
2019-03-24T03:08:08.255Z,50.00
2019-03-24T03:10:39.052Z,49.90
2019-03-24T03:13:09.820Z,49.80
2019-03-24T03:15:40.639Z,49.90
2019-03-24T03:18:11.535Z,50.10
2019-03-24T03:20:42.368Z,50.40
2019-03-24T03:23:13.265Z,50.80
2019-03-24T03:25:44.054Z,50.50
2019-03-24T03:28:16.205Z,50.70
2019-03-24T03:30:47.035Z,50.90
2019-03-24T03:33:17.860Z,50.80
2019-03-24T03:35:48.732Z,50.90
2019-03-24T03:38:19.605Z,51.00
2019-03-24T03:40:51.962Z,51.40
2019-03-24T03:43:24.024Z,51.40
2019-03-24T03:45:54.974Z,51.80
2019-03-24T03:48:27.124Z,52.00
2019-03-24T03:50:58.096Z,52.00
2019-03-24T03:53:28.916Z,52.10
2019-03-24T03:55:59.696Z,52.10
2019-03-24T03:58:30.528Z,51.90
2019-03-24T04:01:01.347Z,51.70
2019-03-24T04:03:32.221Z,51.80
2019-03-24T04:06:02.962Z,51.90
2019-03-24T04:08:33.860Z,52.00
2019-03-24T04:11:04.695Z,51.90
2019-03-24T04:13:35.591Z,51.80
2019-03-24T04:16:06.417Z,51.80
2019-03-24T04:18:37.228Z,52.00
2019-03-24T04:21:08.131Z,51.70
2019-03-24T04:23:39.049Z,51.80
2019-03-24T04:26:09.849Z,51.60
2019-03-24T04:28:40.705Z,51.60
2019-03-24T04:31:11.674Z,51.80
2019-03-24T04:33:42.456Z,52.40
2019-03-24T04:36:13.217Z,52.10
2019-03-24T04:38:44.147Z,52.20
2019-03-24T04:41:15.015Z,52.30
2019-03-24T04:43:46.757Z,52.10
2019-03-24T04:46:17.522Z,52.20
2019-03-24T04:48:48.427Z,52.30
2019-03-24T04:51:19.303Z,52.40
2019-03-24T04:53:50.094Z,52.60
2019-03-24T04:56:20.906Z,52.50
2019-03-24T04:58:51.723Z,52.40
2019-03-24T05:01:22.591Z,52.60
2019-03-24T05:03:53.593Z,52.70
2019-03-24T05:06:24.505Z,53.10
2019-03-24T05:08:55.353Z,53.30
2019-03-24T05:11:26.187Z,53.50
2019-03-24T05:13:58.114Z,53.60
2019-03-24T05:16:28.930Z,53.70
2019-03-24T05:18:59.779Z,53.90
2019-03-24T05:21:30.626Z,54.00
2019-03-24T05:24:01.453Z,54.30
2019-03-24T05:26:32.318Z,53.80
2019-03-24T05:29:03.166Z,53.20
2019-03-24T05:31:33.955Z,53.00
2019-03-24T05:34:04.725Z,52.40
2019-03-24T05:36:36.140Z,51.90
2019-03-24T05:39:07.798Z,51.50
2019-03-24T05:41:38.561Z,51.60
2019-03-24T05:44:09.435Z,51.50
2019-03-24T05:46:40.215Z,51.50
2019-03-24T05:49:11.057Z,51.40
2019-03-24T05:51:41.900Z,50.30
2019-03-24T05:54:12.820Z,50.10
2019-03-24T05:56:44.620Z,49.80
2019-03-24T05:59:15.472Z,49.60
2019-03-24T06:01:46.189Z,49.10
2019-03-24T06:04:17.286Z,48.60
2019-03-24T06:06:48.090Z,47.60
2019-03-24T06:09:21.431Z,47.00
2019-03-24T06:11:52.271Z,46.60
2019-03-24T06:14:23.130Z,46.10
2019-03-24T06:16:54.007Z,45.40
2019-03-24T06:19:24.886Z,44.90
2019-03-24T06:21:55.700Z,44.40
2019-03-24T06:24:33.054Z,44.20
2019-03-24T06:27:04.105Z,43.70
2019-03-24T06:29:34.919Z,43.30
2019-03-24T06:32:05.678Z,43.00
2019-03-24T06:34:44.706Z,42.50
2019-03-24T06:37:16.838Z,42.10
2019-03-24T06:39:47.980Z,41.50
2019-03-24T06:42:19.225Z,40.60
2019-03-24T06:44:50.097Z,39.60
2019-03-24T06:47:21.023Z,39.50
2019-03-24T06:49:53.118Z,38.30
2019-03-24T06:52:24.190Z,37.90
2019-03-24T06:54:55.059Z,37.50
2019-03-24T06:57:25.908Z,36.70
2019-03-24T06:59:57.085Z,36.10
2019-03-24T07:02:33.312Z,35.50
2019-03-24T07:05:04.290Z,35.00
2019-03-24T07:07:35.217Z,33.80
2019-03-24T07:10:08.074Z,33.40
2019-03-24T07:12:39.249Z,33.50
2019-03-24T07:15:13.794Z,32.80
2019-03-24T07:17:44.895Z,32.60
2019-03-24T07:20:15.835Z,32.50
2019-03-24T07:22:46.794Z,32.10
2019-03-24T07:25:17.734Z,31.90
2019-03-24T07:28:01.006Z,31.40
2019-03-24T07:30:31.873Z,31.10
2019-03-24T07:33:02.710Z,31.00
2019-03-24T07:35:33.740Z,30.40
2019-03-24T07:38:04.479Z,30.10
2019-03-24T07:40:38.783Z,29.80
2019-03-24T07:43:09.790Z,29.60
2019-03-24T07:45:40.752Z,29.30
2019-03-24T07:48:19.092Z,28.90
2019-03-24T07:50:44.944Z,28.40
2019-03-24T07:53:15.891Z,28.10
2019-03-24T07:55:46.880Z,27.90
2019-03-24T07:58:17.738Z,27.50
2019-03-24T08:00:50.850Z,27.30
2019-03-24T08:03:21.938Z,26.90
2019-03-24T08:05:52.876Z,26.30
2019-03-24T08:08:25.039Z,26.20
2019-03-24T08:10:56.241Z,25.80
2019-03-24T08:13:27.326Z,25.70
2019-03-24T08:15:58.241Z,25.40
2019-03-24T08:18:30.191Z,25.40
2019-03-24T08:21:01.319Z,25.30
2019-03-24T08:23:32.151Z,25.00
2019-03-24T08:26:03.246Z,24.90
2019-03-24T08:28:34.078Z,25.10
2019-03-24T08:31:04.946Z,24.60
2019-03-24T08:33:35.809Z,24.20
2019-03-24T08:36:07.028Z,24.20
2019-03-24T08:38:37.843Z,24.20
2019-03-24T08:41:08.714Z,23.90
2019-03-24T08:43:39.434Z,24.00
2019-03-24T08:46:10.457Z,23.90
2019-03-24T08:48:41.412Z,23.60
2019-03-24T08:51:12.836Z,23.30
2019-03-24T08:53:43.754Z,23.20
2019-03-24T08:56:14.623Z,23.10
2019-03-24T08:58:45.431Z,22.80
2019-03-24T09:01:16.303Z,22.70
2019-03-24T09:03:48.314Z,22.60
2019-03-24T09:06:24.908Z,22.20
2019-03-24T09:08:55.699Z,22.30
2019-03-24T09:11:31.531Z,22.20
2019-03-24T09:13:59.955Z,22.20
2019-03-24T09:16:30.915Z,22.30
2019-03-24T09:19:01.703Z,22.20
2019-03-24T09:21:33.659Z,22.10
2019-03-24T09:24:04.593Z,22.00
2019-03-24T09:26:35.440Z,21.90
2019-03-24T09:29:08.029Z,21.90
2019-03-24T09:31:42.083Z,21.60
2019-03-24T09:34:12.848Z,21.50
2019-03-24T09:36:45.690Z,21.40
2019-03-24T09:39:20.592Z,21.10
2019-03-24T09:41:51.695Z,21.00
2019-03-24T09:44:22.703Z,20.90
2019-03-24T09:46:53.818Z,20.90
2019-03-24T09:49:30.058Z,20.60
2019-03-24T09:52:01.490Z,20.50
2019-03-24T09:54:32.331Z,20.40
2019-03-24T09:57:03.853Z,20.30
2019-03-24T09:59:35.055Z,20.10
2019-03-24T10:02:05.994Z,20.00
2019-03-24T10:04:36.913Z,19.90
2019-03-24T10:07:13.079Z,19.80
2019-03-24T10:09:46.341Z,19.90
2019-03-24T10:12:17.683Z,19.80
2019-03-24T10:14:48.521Z,19.80
2019-03-24T10:17:19.423Z,19.80
2019-03-24T10:19:50.236Z,19.70
2019-03-24T10:22:21.095Z,19.80
2019-03-24T10:24:54.447Z,19.80
2019-03-24T10:27:25.310Z,19.60
2019-03-24T10:29:56.329Z,19.30
2019-03-24T10:32:27.239Z,19.30
2019-03-24T10:34:58.067Z,19.30
2019-03-24T10:37:28.999Z,19.10
2019-03-24T10:39:59.975Z,19.00
2019-03-24T10:42:30.810Z,18.90
2019-03-24T10:45:01.609Z,18.80
2019-03-24T10:47:32.690Z,18.80
2019-03-24T10:50:03.547Z,18.80
2019-03-24T10:52:34.429Z,19.50
2019-03-24T10:55:06.091Z,19.00
2019-03-24T10:57:37.007Z,18.90
2019-03-24T11:00:08.656Z,18.40
2019-03-24T11:02:39.655Z,18.70
2019-03-24T11:05:11.760Z,18.60
2019-03-24T11:07:43.017Z,18.70
2019-03-24T11:10:14.055Z,18.50
2019-03-24T11:12:44.957Z,18.50
2019-03-24T11:15:15.843Z,18.40
2019-03-24T11:17:46.860Z,18.10
2019-03-24T11:20:17.750Z,18.10
2019-03-24T11:22:48.875Z,18.20
2019-03-24T11:25:20.762Z,18.60
2019-03-24T11:27:51.698Z,18.50
2019-03-24T11:30:22.779Z,18.30
2019-03-24T11:32:53.822Z,18.50
2019-03-24T11:35:24.654Z,18.40
2019-03-24T11:37:55.658Z,18.10
2019-03-24T11:40:27.518Z,18.20
2019-03-24T11:42:59.543Z,18.20
2019-03-24T11:45:30.370Z,18.40
2019-03-24T11:48:01.214Z,18.50
2019-03-24T11:50:32.278Z,18.30
2019-03-24T11:53:03.164Z,18.00
2019-03-24T11:55:34.055Z,17.90
2019-03-24T11:58:06.890Z,17.90
2019-03-24T12:00:40.006Z,18.00
2019-03-24T12:03:11.000Z,17.70
2019-03-24T12:05:41.832Z,17.80
2019-03-24T12:08:12.800Z,17.90
2019-03-24T12:10:43.603Z,17.90
2019-03-24T12:13:14.664Z,17.80
2019-03-24T12:15:45.461Z,17.50
2019-03-24T12:18:17.565Z,17.50
2019-03-24T12:20:48.463Z,17.80
2019-03-24T12:23:21.046Z,17.70
2019-03-24T12:25:52.125Z,17.90
2019-03-24T12:28:23.139Z,17.80
2019-03-24T12:30:54.135Z,17.70
2019-03-24T12:33:25.139Z,17.70
2019-03-24T12:35:56.470Z,17.80
2019-03-24T12:38:27.424Z,17.80
2019-03-24T12:40:58.810Z,17.60
2019-03-24T12:43:29.794Z,16.60
2019-03-24T12:46:01.801Z,16.80
2019-03-24T12:48:32.845Z,16.90
2019-03-24T12:51:04.823Z,17.10
2019-03-24T12:53:35.796Z,17.50
2019-03-24T12:56:09.581Z,17.40
2019-03-24T12:58:40.575Z,17.10
2019-03-24T13:01:12.766Z,16.80
2019-03-24T13:03:43.961Z,17.00
2019-03-24T13:06:14.867Z,17.40
2019-03-24T13:08:45.988Z,17.70
2019-03-24T13:11:17.075Z,17.90
2019-03-24T13:13:48.276Z,18.00
2019-03-24T13:16:19.416Z,18.20
2019-03-24T13:19:25.283Z,18.50
2019-03-24T13:21:59.016Z,18.90
2019-03-24T13:24:30.110Z,19.30
2019-03-24T13:27:01.845Z,20.00
2019-03-24T13:29:33.405Z,20.60
2019-03-24T13:32:04.281Z,20.60
2019-03-24T13:34:35.486Z,20.80
2019-03-24T13:37:06.601Z,21.00
2019-03-24T13:39:37.449Z,21.20
2019-03-24T13:42:09.705Z,21.80
2019-03-24T13:44:41.516Z,22.10
2019-03-24T13:47:12.603Z,21.70
2019-03-24T13:49:43.892Z,21.10
2019-03-24T13:52:15.005Z,21.10
2019-03-24T13:54:45.942Z,20.20
2019-03-24T13:57:16.807Z,19.80
2019-03-24T13:59:47.755Z,19.20
2019-03-24T14:02:18.816Z,18.70
2019-03-24T14:04:49.785Z,18.20
2019-03-24T14:07:20.673Z,17.80
2019-03-24T14:09:51.841Z,17.30
2019-03-24T14:12:22.682Z,17.10
2019-03-24T14:14:53.779Z,16.90
2019-03-24T14:17:30.326Z,16.90
2019-03-24T14:20:01.386Z,16.80
2019-03-24T14:22:32.287Z,16.70
2019-03-24T14:25:03.106Z,17.00
2019-03-24T14:27:34.315Z,16.80
2019-03-24T14:30:05.390Z,16.70
2019-03-24T14:32:36.274Z,16.70
2019-03-24T14:35:07.303Z,16.70
2019-03-24T14:37:39.175Z,16.90
2019-03-24T14:40:10.344Z,16.90
2019-03-24T14:42:41.364Z,17.00
2019-03-24T14:45:12.587Z,16.90
2019-03-24T14:47:43.545Z,16.80
2019-03-24T14:50:14.626Z,16.70
2019-03-24T14:52:45.573Z,16.90
2019-03-24T14:55:16.781Z,17.20
2019-03-24T14:57:47.701Z,17.50
2019-03-24T15:00:23.739Z,17.80
2019-03-24T15:02:55.133Z,18.00
2019-03-24T15:05:26.390Z,18.00
2019-03-24T15:07:57.446Z,18.10
2019-03-24T15:10:28.300Z,18.80
2019-03-24T15:12:59.237Z,19.50
2019-03-24T15:15:30.023Z,20.10
2019-03-24T15:18:00.909Z,20.80
2019-03-24T15:20:31.906Z,21.40
2019-03-24T15:23:02.931Z,21.90
2019-03-24T15:25:33.932Z,22.40
2019-03-24T15:28:05.624Z,22.90
2019-03-24T15:30:38.753Z,23.40
2019-03-24T15:33:10.526Z,24.00
2019-03-24T15:35:41.893Z,24.60
2019-03-24T15:38:12.801Z,25.00
2019-03-24T15:40:43.677Z,25.20
2019-03-24T15:43:14.594Z,25.70
2019-03-24T15:45:46.914Z,26.10
2019-03-24T15:48:19.117Z,26.30
2019-03-24T15:50:50.035Z,26.60
2019-03-24T15:53:31.394Z,26.80
2019-03-24T15:56:02.246Z,27.10
2019-03-24T15:58:33.017Z,27.30
2019-03-24T16:01:03.880Z,27.50
2019-03-24T16:03:35.014Z,27.90
2019-03-24T16:06:05.981Z,28.20
2019-03-24T16:08:37.902Z,28.40
2019-03-24T16:11:08.805Z,28.50
2019-03-24T16:13:39.590Z,28.80
2019-03-24T16:16:10.506Z,29.10
2019-03-24T16:18:41.263Z,29.30
2019-03-24T16:21:12.106Z,29.40
2019-03-24T16:23:42.895Z,29.70
2019-03-24T16:26:13.739Z,29.80
2019-03-24T16:28:44.577Z,30.00
2019-03-24T16:31:15.428Z,30.10
2019-03-24T16:33:46.318Z,30.20
2019-03-24T16:36:17.154Z,30.40
2019-03-24T16:38:49.186Z,30.50
2019-03-24T16:41:20.219Z,30.80
2019-03-24T16:43:51.103Z,30.80
2019-03-24T16:46:22.010Z,31.10
2019-03-24T16:48:52.900Z,31.30
2019-03-24T16:51:23.956Z,31.40
2019-03-24T16:53:54.815Z,31.70
2019-03-24T16:56:26.740Z,31.80
2019-03-24T16:58:57.582Z,32.00
2019-03-24T17:01:28.541Z,32.20
2019-03-24T17:03:59.323Z,32.50
2019-03-24T17:06:30.439Z,32.70
2019-03-24T17:09:01.317Z,32.70
2019-03-24T17:11:33.309Z,32.90
2019-03-24T17:14:04.237Z,32.90
2019-03-24T17:16:35.569Z,33.10
2019-03-24T17:19:06.452Z,33.30
2019-03-24T17:21:37.367Z,33.30
2019-03-24T17:24:09.240Z,33.40
2019-03-24T17:26:40.157Z,33.50
2019-03-24T17:29:11.005Z,33.90
2019-03-24T17:31:42.026Z,34.10
2019-03-24T17:34:12.949Z,34.40
2019-03-24T17:36:43.996Z,34.40
2019-03-24T17:39:17.939Z,34.50
2019-03-24T17:41:48.942Z,34.80
2019-03-24T17:44:24.454Z,34.80
2019-03-24T17:46:56.307Z,35.10
2019-03-24T17:49:27.231Z,35.30
2019-03-24T17:52:00.898Z,35.40
2019-03-24T17:54:30.543Z,35.60
2019-03-24T17:57:01.562Z,35.70
2019-03-24T17:59:32.521Z,35.80
2019-03-24T18:02:13.884Z,36.50
2019-03-24T18:04:36.934Z,36.00
2019-03-24T18:07:07.918Z,36.20
2019-03-24T18:09:38.929Z,36.50
2019-03-24T18:12:10.858Z,36.70
2019-03-24T18:14:41.665Z,36.80
2019-03-24T18:17:12.606Z,37.00
2019-03-24T18:19:43.486Z,37.20
2019-03-24T18:22:14.378Z,37.20
2019-03-24T18:24:45.274Z,37.20
2019-03-24T18:27:16.273Z,37.40
2019-03-24T18:29:47.346Z,37.40
2019-03-24T18:32:18.214Z,37.50
2019-03-24T18:34:49.096Z,37.60
2019-03-24T18:37:20.086Z,37.60
2019-03-24T18:39:50.986Z,37.80
2019-03-24T18:42:21.863Z,37.90
2019-03-24T18:45:00.461Z,37.90
2019-03-24T18:47:41.088Z,38.20
2019-03-24T18:50:11.819Z,38.40
2019-03-24T18:52:44.654Z,38.50
2019-03-24T18:55:16.095Z,38.70
2019-03-24T18:57:46.962Z,39.10
2019-03-24T19:00:18.423Z,39.30
2019-03-24T19:02:49.294Z,39.50
2019-03-24T19:05:20.289Z,39.60
2019-03-24T19:07:51.323Z,39.50
2019-03-24T19:10:22.375Z,39.60
2019-03-24T19:12:53.333Z,39.60
2019-03-24T19:15:24.313Z,39.50
2019-03-24T19:17:57.384Z,39.50
2019-03-24T19:20:28.338Z,39.40
2019-03-24T19:22:59.246Z,39.50
2019-03-24T19:25:30.343Z,39.50
2019-03-24T19:28:01.356Z,39.60
2019-03-24T19:30:38.014Z,39.50
2019-03-24T19:33:09.000Z,39.60
2019-03-24T19:35:39.854Z,39.50
2019-03-24T19:38:13.967Z,39.50
2019-03-24T19:40:57.442Z,39.60
2019-03-24T19:43:32.117Z,39.70
2019-03-24T19:46:03.570Z,39.70
2019-03-24T19:48:34.881Z,39.90
2019-03-24T19:51:07.199Z,40.10
2019-03-24T19:53:38.235Z,40.20
2019-03-24T19:56:09.102Z,40.40
2019-03-24T19:58:41.014Z,40.60
2019-03-24T20:01:11.925Z,40.80
2019-03-24T20:03:43.569Z,40.70
2019-03-24T20:06:14.653Z,41.50
2019-03-24T20:08:46.754Z,40.90
2019-03-24T20:11:18.793Z,41.30
2019-03-24T20:13:50.812Z,41.60
2019-03-24T20:16:22.169Z,41.80
2019-03-24T20:18:53.118Z,42.10
2019-03-24T20:21:24.314Z,42.00
2019-03-24T20:24:09.311Z,41.90
2019-03-24T20:26:40.629Z,42.00
2019-03-24T20:29:12.942Z,42.10
2019-03-24T20:31:44.361Z,42.00
2019-03-24T20:34:16.040Z,42.00
2019-03-24T20:36:47.309Z,41.90
2019-03-24T20:39:18.671Z,42.00
2019-03-24T20:41:49.983Z,41.90
2019-03-24T20:44:24.714Z,41.80
2019-03-24T20:46:55.559Z,41.80
2019-03-24T20:49:26.534Z,41.90
2019-03-24T20:51:57.522Z,42.20
2019-03-24T20:54:28.521Z,42.40
2019-03-24T20:57:18.896Z,42.60
2019-03-24T20:59:52.230Z,42.50
2019-03-24T21:02:23.490Z,42.20
2019-03-24T21:04:54.608Z,42.30
2019-03-24T21:07:25.653Z,42.50
2019-03-24T21:09:56.957Z,42.30
2019-03-24T21:12:28.021Z,42.40
2019-03-24T21:14:59.049Z,42.40
2019-03-24T21:17:29.902Z,42.30
2019-03-24T21:20:01.874Z,42.10
2019-03-24T21:22:32.914Z,42.10
2019-03-24T21:27:51.902Z,42.10
2019-03-24T21:30:50.089Z,42.20
2019-03-24T21:33:21.802Z,42.20
2019-03-24T21:35:52.943Z,42.40
2019-03-24T21:38:24.105Z,42.60
2019-03-24T21:40:55.200Z,42.70
2019-03-24T21:43:26.595Z,43.10
2019-03-24T21:45:57.540Z,43.40
2019-03-24T21:48:28.523Z,43.50
2019-03-24T21:51:00.076Z,43.70
2019-03-24T21:53:40.267Z,43.70
2019-03-24T21:56:03.962Z,43.80
2019-03-24T21:58:35.247Z,43.40
2019-03-24T22:01:06.081Z,43.30
2019-03-24T22:03:37.104Z,43.00
2019-03-24T22:06:08.034Z,43.00
2019-03-24T22:08:38.933Z,42.90
2019-03-24T22:11:09.891Z,42.90
2019-03-24T22:13:40.776Z,42.90
2019-03-24T22:16:11.657Z,42.80
2019-03-24T22:18:42.669Z,42.90
2019-03-24T22:21:14.853Z,42.90
2019-03-24T22:23:52.228Z,43.10
2019-03-24T22:26:18.352Z,43.20
2019-03-24T22:28:49.215Z,43.30
2019-03-24T22:31:20.173Z,43.30
2019-03-24T22:33:51.231Z,43.30
2019-03-24T22:36:22.103Z,43.40
2019-03-24T22:38:53.142Z,43.40
2019-03-24T22:41:24.251Z,44.10
2019-03-24T22:43:55.197Z,43.70
2019-03-24T22:46:26.049Z,43.70
2019-03-24T22:48:59.084Z,43.80
2019-03-24T22:51:35.287Z,43.60
2019-03-24T22:54:07.371Z,43.60
2019-03-24T22:56:39.469Z,43.70
2019-03-24T22:59:10.395Z,43.70
2019-03-24T23:01:44.455Z,43.50
2019-03-24T23:04:17.012Z,43.50
2019-03-24T23:06:53.153Z,43.50
2019-03-24T23:09:24.742Z,43.50
2019-03-24T23:11:55.712Z,43.40
2019-03-24T23:14:29.540Z,43.20
2019-03-24T23:17:02.081Z,43.10
2019-03-24T23:19:35.654Z,43.10
2019-03-24T23:22:06.993Z,43.10
2019-03-24T23:24:38.045Z,43.00
2019-03-24T23:27:10.024Z,42.90
2019-03-24T23:29:42.377Z,42.90
2019-03-24T23:32:13.248Z,42.90
2019-03-24T23:34:49.046Z,42.90
2019-03-24T23:37:22.954Z,42.90
2019-03-24T23:39:54.333Z,43.00
2019-03-24T23:42:25.700Z,43.10
2019-03-24T23:44:56.765Z,42.90
2019-03-24T23:47:27.798Z,43.00
2019-03-24T23:49:58.682Z,42.80
2019-03-24T23:52:29.599Z,42.70
2019-03-24T23:55:00.490Z,42.60
2019-03-24T23:57:31.479Z,42.60
